Juliustown, New Jersey
Current Conditions -  °F | °C
As of 10:58 PM on Saturday 24 Jan 2015 (Local Time) from KWRI Reporting Station
Broken Clouds Broken Clouds  
Wind Chill: 26°   Ceiling: 7000
Heat Index: 35°   Visibility: 10mi
Dew Point: 26°   Wind: 13mph
Humidity: 71%   Direction: 290°WNW
Pressure: 29.51"   Gusts: 18mph
Location:  40.01°N, 74.67°W
Report Text: KWRI 250358Z AUTO 29011G16KT 10SM BKN070 02/M03 A2951 RMK AO2 SLP997 T00151033
Loading
Personal Weather Stations






























Interactive Weather Map New forecast layout! Learn more

10-Day Weather Forecast

Advertisements
Track Severe Weather on mobile